Time;durP1;ratioP1;P1;durP2;ratioP2;P2;SDS_P1;SDS_P2;PMS_P1;PMS_P2;Temp;Humidity;BMP_temperature;BMP_pressure;BME280_temperature;BME280_humidity;BME280_pressure;Samples;Min_cycle;Max_cycle;Signal;HPM_P1;HPM_P2
2022/10/17 00:00:40;;;;;;;3.03;2.80;;;16.80;97.30;;;;;;5095963;28;20271;-43
2022/10/17 00:03:06;;;;;;;4.00;3.00;;;16.80;97.30;;;;;;5094856;28;20219;-44
2022/10/17 00:05:31;;;;;;;4.00;2.50;;;16.80;97.30;;;;;;5096676;28;20415;-45
2022/10/17 00:07:57;;;;;;;3.80;2.70;;;16.80;97.20;;;;;;5093520;28;20196;-44
2022/10/17 00:10:22;;;;;;;2.90;2.53;;;16.80;97.30;;;;;;5096189;28;20177;-45
2022/10/17 00:12:50;;;;;;;4.53;2.33;;;16.80;97.20;;;;;;5094556;28;20500;-44
2022/10/17 00:15:17;;;;;;;2.30;2.10;;;16.70;97.20;;;;;;5093862;28;20499;-43
2022/10/17 00:17:43;;;;;;;2.83;2.53;;;16.70;97.20;;;;;;5093503;28;20693;-45
2022/10/17 00:20:09;;;;;;;3.50;2.47;;;16.70;97.20;;;;;;5095417;28;20430;-45
2022/10/17 00:22:35;;;;;;;2.60;2.40;;;16.70;97.20;;;;;;5094956;28;20584;-44
2022/10/17 00:25:01;;;;;;;2.53;2.10;;;16.70;97.20;;;;;;5096410;28;20428;-42
2022/10/17 00:27:26;;;;;;;2.70;2.20;;;16.70;97.20;;;;;;5095061;28;20576;-44
2022/10/17 00:29:52;;;;;;;2.23;2.03;;;16.70;97.20;;;;;;5096156;28;20166;-44
2022/10/17 00:32:19;;;;;;;3.50;2.77;;;16.70;97.20;;;;;;5094896;28;20221;-44
2022/10/17 00:34:45;;;;;;;2.63;2.43;;;16.60;97.30;;;;;;5095994;28;20294;-45
2022/10/17 00:37:11;;;;;;;3.20;2.90;;;16.60;97.20;;;;;;5093982;28;20723;-43
2022/10/17 00:39:37;;;;;;;2.93;2.57;;;16.60;97.30;;;;;;5095160;28;20423;-43
2022/10/17 00:42:03;;;;;;;2.50;2.30;;;16.60;97.30;;;;;;5094912;28;20513;-43
2022/10/17 00:44:28;;;;;;;5.13;3.23;;;16.50;97.30;;;;;;5095142;28;20201;-45
2022/10/17 00:46:55;;;;;;;3.37;2.50;;;16.50;97.20;;;;;;5094631;28;20444;-46
2022/10/17 00:49:22;;;;;;;3.33;2.60;;;16.50;97.30;;;;;;5096178;28;20169;-45
2022/10/17 00:51:59;;;;;;;3.63;3.10;;;16.50;97.30;;;;;;5093795;28;20720;-46
2022/10/17 00:54:36;;;;;;;3.00;2.70;;;16.50;97.30;;;;;;5095087;28;20428;-43
2022/10/17 00:57:02;;;;;;;2.47;2.27;;;16.40;97.30;;;;;;5097426;28;20932;-43
2022/10/17 00:59:28;;;;;;;6.00;2.70;;;16.40;97.40;;;;;;5098676;28;20419;-44
2022/10/17 01:02:06;;;;;;;3.90;2.87;;;16.40;97.40;;;;;;5097935;28;20560;-47
2022/10/17 01:04:31;;;;;;;3.13;2.33;;;16.40;97.40;;;;;;5099911;28;20420;-44
2022/10/17 01:06:57;;;;;;;3.83;2.40;;;16.40;97.40;;;;;;5098373;28;20439;-46
2022/10/17 01:09:24;;;;;;;3.10;2.80;;;16.30;97.40;;;;;;5099693;28;20249;-45
2022/10/17 01:12:17;;;;;;;3.90;2.63;;;16.30;97.40;;;;;;5099627;28;20181;-44
2022/10/17 01:15:05;;;;;;;2.83;2.27;;;16.30;97.40;;;;;;5096728;28;20431;-44
2022/10/17 01:17:49;;;;;;;2.80;2.40;;;16.30;97.50;;;;;;5099582;28;20421;-44
2022/10/17 01:20:34;;;;;;;3.00;2.70;;;16.20;97.50;;;;;;5098119;28;20816;-45
2022/10/17 01:23:30;;;;;;;4.27;2.90;;;16.20;97.60;;;;;;5098592;28;20437;-43
2022/10/17 01:25:56;;;;;;;2.90;2.37;;;16.20;97.70;;;;;;5099380;28;20419;-42
2022/10/17 01:28:29;;;;;;;2.83;2.53;;;16.20;97.70;;;;;;5096697;28;20419;-45
2022/10/17 01:31:15;;;;;;;3.10;2.63;;;16.20;97.70;;;;;;5098343;28;20479;-47
2022/10/17 01:34:02;;;;;;;2.87;2.60;;;16.20;97.80;;;;;;5097812;28;20489;-42
2022/10/17 01:36:42;;;;;;;3.17;2.50;;;16.10;97.70;;;;;;5098848;28;20511;-42
2022/10/17 01:39:25;;;;;;;3.10;2.70;;;16.10;97.80;;;;;;5097429;28;20432;-43
2022/10/17 01:42:11;;;;;;;3.20;2.90;;;16.10;97.80;;;;;;5099345;28;20729;-44
2022/10/17 01:44:49;;;;;;;4.10;2.70;;;16.10;97.80;;;;;;5097000;28;20483;-45
2022/10/17 01:47:18;;;;;;;2.73;2.40;;;16.10;97.70;;;;;;5099190;28;20464;-42
2022/10/17 01:49:45;;;;;;;3.50;2.70;;;16.00;97.60;;;;;;5096603;28;20439;-44
2022/10/17 01:52:24;;;;;;;2.77;2.57;;;16.00;97.70;;;;;;5097615;28;20454;-43
2022/10/17 01:55:01;;;;;;;3.13;2.77;;;16.00;97.60;;;;;;5095987;28;20438;-44
2022/10/17 01:57:49;;;;;;;2.70;2.50;;;15.90;97.60;;;;;;5097750;28;20415;-44
2022/10/17 02:00:20;;;;;;;2.60;2.40;;;15.90;97.60;;;;;;5096267;28;20430;-46
2022/10/17 02:02:47;;;;;;;3.00;2.70;;;15.90;97.70;;;;;;5097765;28;20407;-44
2022/10/17 02:05:16;;;;;;;2.80;2.60;;;15.80;97.60;;;;;;5096763;28;20514;-45
2022/10/17 02:07:41;;;;;;;2.83;2.47;;;15.80;97.70;;;;;;5097738;28;20812;-42
2022/10/17 02:10:30;;;;;;;4.20;2.90;;;15.80;97.80;;;;;;5096923;28;20415;-43
2022/10/17 02:13:08;;;;;;;3.43;3.13;;;15.80;97.80;;;;;;5097954;28;20167;-44
2022/10/17 02:15:49;;;;;;;3.70;2.30;;;15.70;97.70;;;;;;5096061;28;20720;-45
2022/10/17 02:18:22;;;;;;;4.10;2.53;;;15.70;97.80;;;;;;5097895;28;20528;-46
2022/10/17 02:21:07;;;;;;;2.73;2.53;;;15.70;97.80;;;;;;5097458;28;20470;-44
2022/10/17 02:23:59;;;;;;;3.57;2.70;;;15.70;97.80;;;;;;5096178;28;20403;-43
2022/10/17 02:26:32;;;;;;;3.47;2.60;;;15.60;97.80;;;;;;5097251;28;20399;-43
2022/10/17 02:29:14;;;;;;;2.90;2.57;;;15.60;97.80;;;;;;5096238;28;20462;-45
2022/10/17 02:31:45;;;;;;;3.20;2.70;;;15.60;97.80;;;;;;5098043;28;20514;-43
2022/10/17 02:34:43;;;;;;;2.67;2.47;;;15.50;97.80;;;;;;5094908;28;20514;-43
2022/10/17 02:37:11;;;;;;;2.43;2.23;;;15.50;97.80;;;;;;5092230;28;20828;-44
2022/10/17 02:39:37;;;;;;;2.50;2.30;;;15.50;97.80;;;;;;5094720;28;20495;-46
2022/10/17 02:42:06;;;;;;;3.77;2.80;;;15.40;97.70;;;;;;5096378;28;20464;-42
2022/10/17 02:44:32;;;;;;;2.73;2.50;;;15.40;97.80;;;;;;5094147;28;20430;-45
2022/10/17 02:47:11;;;;;;;2.67;2.30;;;15.40;97.90;;;;;;5095940;28;20506;-43
2022/10/17 02:49:40;;;;;;;6.07;2.40;;;15.30;98.10;;;;;;5094522;28;20484;-44
2022/10/17 02:52:16;;;;;;;2.73;2.43;;;15.30;97.80;;;;;;5095660;28;20473;-44
2022/10/17 02:54:50;;;;;;;2.60;2.40;;;15.30;97.80;;;;;;5093692;28;20442;-43
2022/10/17 02:57:21;;;;;;;2.90;2.47;;;15.30;97.90;;;;;;5095883;28;20460;-43
2022/10/17 02:59:48;;;;;;;3.40;2.60;;;15.20;97.80;;;;;;5079282;28;20491;-43
2022/10/17 03:02:13;;;;;;;3.00;2.70;;;15.20;98.20;;;;;;5096442;28;20473;-45
2022/10/17 03:04:49;;;;;;;3.10;2.80;;;15.20;97.90;;;;;;5095266;28;20893;-43
2022/10/17 03:07:14;;;;;;;2.67;2.43;;;15.20;97.90;;;;;;5095015;28;20183;-46
2022/10/17 03:09:40;;;;;;;3.43;2.60;;;15.20;98.00;;;;;;5093134;28;20833;-44
2022/10/17 03:12:05;;;;;;;2.83;2.53;;;15.10;98.00;;;;;;5095011;28;20180;-43
2022/10/17 03:14:31;;;;;;;4.43;2.93;;;15.10;98.00;;;;;;5092779;28;20174;-43
2022/10/17 03:16:57;;;;;;;3.37;2.60;;;15.10;98.10;;;;;;5094938;28;20195;-44
2022/10/17 03:19:22;;;;;;;3.80;2.63;;;15.10;98.20;;;;;;5087258;28;20319;-44
2022/10/17 03:21:48;;;;;;;2.40;2.20;;;15.10;98.20;;;;;;5095218;28;20201;-44
2022/10/17 03:24:14;;;;;;;3.50;3.00;;;15.10;98.20;;;;;;5095434;28;20271;-44
2022/10/17 03:26:40;;;;;;;2.93;2.63;;;15.10;98.20;;;;;;5097097;28;20175;-45
2022/10/17 03:29:06;;;;;;;2.93;2.63;;;15.10;98.20;;;;;;5095649;28;20705;-44
2022/10/17 03:31:31;;;;;;;4.30;2.80;;;15.00;98.20;;;;;;5097066;28;20180;-43
2022/10/17 03:33:57;;;;;;;3.80;2.97;;;15.00;98.10;;;;;;5095037;28;20653;-45
2022/10/17 03:36:22;;;;;;;2.83;2.57;;;15.00;98.20;;;;;;5096563;28;20198;-45
2022/10/17 03:38:48;;;;;;;3.00;2.80;;;15.00;98.30;;;;;;5094185;28;20184;-46
2022/10/17 03:41:14;;;;;;;3.67;3.27;;;15.00;98.40;;;;;;5095869;28;20214;-43
2022/10/17 03:43:39;;;;;;;2.80;2.50;;;15.00;98.40;;;;;;5095195;28;20181;-44
2022/10/17 03:46:06;;;;;;;3.43;2.80;;;15.00;98.40;;;;;;5096273;28;20235;-43
2022/10/17 03:48:32;;;;;;;2.67;2.43;;;15.00;98.50;;;;;;5094041;28;20217;-44
2022/10/17 03:51:03;;;;;;;3.50;3.20;;;15.00;98.60;;;;;;5097171;28;20450;-46
2022/10/17 03:53:29;;;;;;;2.73;2.50;;;15.00;98.70;;;;;;5095017;28;20825;-49
2022/10/17 03:55:55;;;;;;;3.10;2.80;;;15.00;98.70;;;;;;5093513;28;20480;-43
2022/10/17 03:58:20;;;;;;;3.13;2.83;;;15.00;98.80;;;;;;5092345;28;20578;-45
2022/10/17 04:00:46;;;;;;;2.57;2.37;;;15.00;98.80;;;;;;5093877;28;20302;-44
2022/10/17 04:03:12;;;;;;;2.73;2.53;;;15.00;98.90;;;;;;5093490;28;20164;-43
2022/10/17 04:05:38;;;;;;;2.57;2.37;;;15.10;99.00;;;;;;5091871;28;20741;-44
2022/10/17 04:08:03;;;;;;;2.93;2.67;;;15.10;99.00;;;;;;5093404;28;20179;-44
2022/10/17 04:10:29;;;;;;;2.83;2.63;;;15.10;99.00;;;;;;5091104;28;20184;-44
2022/10/17 04:12:55;;;;;;;2.97;2.50;;;15.10;99.00;;;;;;5093012;28;20559;-43
2022/10/17 04:15:21;;;;;;;4.80;2.63;;;15.10;98.90;;;;;;5090880;28;20419;-43
2022/10/17 04:17:46;;;;;;;3.20;2.90;;;15.10;98.90;;;;;;5092625;28;20197;-44
2022/10/17 04:20:12;;;;;;;5.23;2.67;;;15.10;98.80;;;;;;5091337;28;20177;-44
2022/10/17 04:22:37;;;;;;;2.60;2.40;;;15.00;98.70;;;;;;5089482;28;20459;-44
2022/10/17 04:25:03;;;;;;;4.77;3.07;;;15.00;98.70;;;;;;5092046;28;20181;-43
2022/10/17 04:27:29;;;;;;;5.77;2.63;;;15.00;98.70;;;;;;5091271;28;20184;-44
2022/10/17 04:29:55;;;;;;;3.40;3.10;;;15.00;98.70;;;;;;5093365;28;20412;-46
2022/10/17 04:32:20;;;;;;;2.63;2.43;;;15.00;98.70;;;;;;5096708;28;20185;-47
2022/10/17 04:34:49;;;;;;;3.80;3.10;;;14.90;98.70;;;;;;5097960;28;20295;-47
2022/10/17 04:37:15;;;;;;;2.93;2.70;;;14.90;98.70;;;;;;5098314;28;20437;-45
2022/10/17 04:39:41;;;;;;;3.10;2.70;;;14.90;98.70;;;;;;5097373;28;20408;-42
2022/10/17 04:42:06;;;;;;;3.60;2.50;;;14.90;98.70;;;;;;5096030;28;20972;-45
2022/10/17 04:44:34;;;;;;;2.93;2.60;;;14.90;98.70;;;;;;5097466;28;20165;-43
2022/10/17 04:46:59;;;;;;;2.60;2.40;;;14.90;98.70;;;;;;5094614;28;20443;-45
2022/10/17 04:49:25;;;;;;;2.83;2.60;;;14.80;98.60;;;;;;5096306;28;20399;-45
2022/10/17 04:51:50;;;;;;;3.13;2.83;;;14.80;98.70;;;;;;5095332;28;20181;-44
2022/10/17 04:54:16;;;;;;;3.20;2.27;;;14.80;98.70;;;;;;5095751;28;20180;-45
2022/10/17 04:56:42;;;;;;;3.80;3.40;;;14.80;98.80;;;;;;5095519;28;20204;-43
2022/10/17 04:59:07;;;;;;;3.97;3.57;;;14.80;98.80;;;;;;5096224;28;20474;-45
2022/10/17 05:01:33;;;;;;;4.53;4.13;;;14.80;98.80;;;;;;5094250;28;20220;-45
2022/10/17 05:03:58;;;;;;;4.63;4.03;;;14.80;99.20;;;;;;5095249;28;20260;-44
2022/10/17 05:06:29;;;;;;;4.23;3.93;;;14.80;98.90;;;;;;5095759;28;20189;-46
2022/10/17 05:08:54;;;;;;;3.90;3.60;;;14.80;99.00;;;;;;5096770;28;20241;-43
2022/10/17 05:11:25;;;;;;;4.20;3.80;;;14.70;98.90;;;;;;5091700;28;20434;-47
2022/10/17 05:13:56;;;;;;;4.00;3.47;;;14.70;99.00;;;;;;5096794;28;20545;-45
2022/10/17 05:16:23;;;;;;;3.90;3.33;;;14.70;99.10;;;;;;5095725;28;20426;-45
2022/10/17 05:18:50;;;;;;;3.77;3.47;;;14.60;99.20;;;;;;5093458;28;20451;-44
2022/10/17 05:21:15;;;;;;;3.00;2.70;;;14.50;99.20;;;;;;5088377;28;20481;-46
2022/10/17 05:23:41;;;;;;;3.93;3.00;;;14.50;99.70;;;;;;5088791;28;20854;-43
2022/10/17 05:26:06;;;;;;;3.57;3.27;;;14.50;99.40;;;;;;5090434;28;20177;-45
2022/10/17 05:28:33;;;;;;;4.17;3.47;;;14.40;99.50;;;;;;5093016;28;20177;-44
2022/10/17 05:31:06;;;;;;;5.37;2.93;;;14.40;99.60;;;;;;5088612;28;20181;-44
2022/10/17 05:33:32;;;;;;;3.73;3.10;;;14.40;99.70;;;;;;5089134;28;20459;-46
2022/10/17 05:35:58;;;;;;;2.90;2.60;;;14.40;99.80;;;;;;5088453;28;20431;-46
2022/10/17 05:38:24;;;;;;;3.47;3.17;;;14.40;99.80;;;;;;5091242;28;20431;-46
2022/10/17 05:40:50;;;;;;;3.70;2.93;;;14.40;99.90;;;;;;5090816;28;20231;-42
2022/10/17 05:43:16;;;;;;;5.20;3.23;;;14.40;99.90;;;;;;5090905;28;20417;-44
2022/10/17 05:45:42;;;;;;;4.40;4.00;;;14.40;99.90;;;;;;5091478;28;20553;-43
2022/10/17 05:48:08;;;;;;;4.83;3.43;;;14.40;99.90;;;;;;5093496;28;20634;-45
2022/10/17 05:50:34;;;;;;;4.80;4.23;;;14.40;99.90;;;;;;5089436;28;20176;-45
2022/10/17 05:53:00;;;;;;;3.43;2.90;;;14.40;99.90;;;;;;5090280;28;20406;-43
2022/10/17 05:55:26;;;;;;;4.30;3.50;;;14.40;99.90;;;;;;5087552;28;20762;-45
2022/10/17 05:57:52;;;;;;;8.37;3.40;;;14.40;99.90;;;;;;5090083;28;20185;-46
2022/10/17 06:00:18;;;;;;;4.13;3.60;;;14.40;99.90;;;;;;5089607;28;20407;-46
2022/10/17 06:02:44;;;;;;;3.93;3.00;;;14.40;99.90;;;;;;5088020;28;20439;-43
2022/10/17 06:05:12;;;;;;;3.90;3.60;;;14.40;99.90;;;;;;5090230;28;20408;-43
2022/10/17 06:07:37;;;;;;;3.60;3.17;;;14.40;99.90;;;;;;5090815;28;20910;-46
2022/10/17 06:10:03;;;;;;;4.00;3.30;;;14.40;99.90;;;;;;5092475;28;20446;-45
2022/10/17 06:12:29;;;;;;;4.10;3.17;;;14.60;99.90;;;;;;5089115;28;20613;-42
2022/10/17 06:14:54;;;;;;;4.30;2.80;;;14.90;99.90;;;;;;5090249;28;20405;-43
2022/10/17 06:17:20;;;;;;;3.70;3.40;;;15.20;99.90;;;;;;5088394;28;20185;-46
2022/10/17 06:19:46;;;;;;;3.30;2.97;;;15.50;99.00;;;;;;5091744;28;20171;-44
2022/10/17 06:22:12;;;;;;;4.70;3.20;;;15.70;98.40;;;;;;5094164;28;20254;-45
2022/10/17 06:24:38;;;;;;;4.67;3.10;;;15.90;97.80;;;;;;5087468;28;20556;-43
2022/10/17 06:27:03;;;;;;;4.20;3.57;;;15.90;97.50;;;;;;5091324;28;20404;-44
2022/10/17 06:29:29;;;;;;;3.93;3.60;;;15.90;97.50;;;;;;5091763;28;20274;-44
2022/10/17 06:31:55;;;;;;;7.60;3.87;;;15.90;97.50;;;;;;5092717;28;20478;-43
2022/10/17 06:34:20;;;;;;;4.80;3.50;;;16.00;97.60;;;;;;5092643;28;20233;-49
2022/10/17 06:36:46;;;;;;;6.50;4.07;;;16.00;97.50;;;;;;5093467;28;20176;-43
2022/10/17 06:39:12;;;;;;;5.00;3.80;;;16.00;97.60;;;;;;5091563;28;20511;-44
2022/10/17 06:41:39;;;;;;;5.03;3.37;;;16.20;97.60;;;;;;5090161;28;20553;-48
2022/10/17 06:44:09;;;;;;;5.33;4.20;;;16.30;97.40;;;;;;5087845;28;20185;-43
2022/10/17 06:46:36;;;;;;;4.13;3.57;;;16.40;97.20;;;;;;5092179;28;20953;-44
2022/10/17 06:49:03;;;;;;;5.00;3.40;;;16.50;97.20;;;;;;5090805;28;20766;-46
2022/10/17 06:51:29;;;;;;;4.10;3.30;;;16.70;97.20;;;;;;5087989;28;20871;-46
2022/10/17 06:53:57;;;;;;;3.67;3.37;;;17.00;97.00;;;;;;5093239;28;20480;-44
2022/10/17 06:56:23;;;;;;;3.30;3.00;;;17.30;96.60;;;;;;5097025;28;20423;-45
2022/10/17 06:58:50;;;;;;;3.97;3.10;;;17.70;96.10;;;;;;5092915;28;20541;-43
2022/10/17 07:01:15;;;;;;;5.30;3.87;;;18.10;95.70;;;;;;5095282;28;20474;-43
2022/10/17 07:03:42;;;;;;;3.63;3.03;;;18.50;95.30;;;;;;5094503;28;20431;-45
2022/10/17 07:06:10;;;;;;;4.23;3.60;;;18.90;94.70;;;;;;5093669;28;20173;-47
2022/10/17 07:08:36;;;;;;;3.40;3.00;;;19.30;94.10;;;;;;5092663;28;20788;-44
2022/10/17 07:11:09;;;;;;;3.17;2.87;;;19.80;93.60;;;;;;5095156;28;20441;-45
2022/10/17 07:13:35;;;;;;;3.47;3.17;;;20.20;92.90;;;;;;5093570;28;20496;-43
2022/10/17 07:16:01;;;;;;;5.37;3.63;;;20.60;92.30;;;;;;5094053;28;20428;-44
2022/10/17 07:18:26;;;;;;;3.50;3.00;;;21.10;91.70;;;;;;5092644;28;20492;-45
2022/10/17 07:20:53;;;;;;;4.80;3.53;;;21.50;91.20;;;;;;5094264;28;20550;-45
2022/10/17 07:23:19;;;;;;;4.07;3.53;;;21.90;90.60;;;;;;5092349;28;20200;-43
2022/10/17 07:25:45;;;;;;;4.30;3.40;;;22.40;90.00;;;;;;5095101;28;20621;-45
2022/10/17 07:28:10;;;;;;;4.30;3.50;;;22.90;88.80;;;;;;5092784;28;20433;-44
2022/10/17 07:30:36;;;;;;;3.50;3.20;;;23.40;87.20;;;;;;5077441;28;20174;-44
2022/10/17 07:33:02;;;;;;;3.80;3.07;;;23.80;85.50;;;;;;5093441;28;20316;-45
2022/10/17 07:35:28;;;;;;;4.73;3.10;;;24.30;83.90;;;;;;5093030;28;20234;-45
2022/10/17 07:37:54;;;;;;;3.43;3.13;;;24.90;82.50;;;;;;5093519;28;20243;-44
2022/10/17 07:40:19;;;;;;;3.63;3.20;;;25.50;80.30;;;;;;5094426;28;20413;-44
2022/10/17 07:42:46;;;;;;;6.37;3.27;;;26.20;77.30;;;;;;5094139;28;20180;-45
2022/10/17 07:45:14;;;;;;;3.50;3.20;;;27.10;74.40;;;;;;5094580;28;20330;-46
2022/10/17 07:47:40;;;;;;;2.83;2.60;;;28.10;70.50;;;;;;5094502;28;20521;-45
2022/10/17 07:50:06;;;;;;;2.97;2.77;;;29.10;65.80;;;;;;5094720;28;20510;-47
2022/10/17 07:52:32;;;;;;;4.07;3.43;;;30.00;61.00;;;;;;5091791;28;20470;-47
2022/10/17 07:54:58;;;;;;;3.80;3.07;;;30.80;58.40;;;;;;5095622;28;20406;-43
2022/10/17 07:57:26;;;;;;;3.87;2.97;;;31.50;56.20;;;;;;5096181;28;20430;-44
2022/10/17 07:59:53;;;;;;;2.77;2.57;;;32.10;54.40;;;;;;5094610;28;20243;-46
2022/10/17 08:02:26;;;;;;;3.30;2.90;;;32.90;52.50;;;;;;5095762;28;20888;-45
2022/10/17 08:04:52;;;;;;;4.33;3.23;;;33.40;50.70;;;;;;5095915;28;20470;-46
2022/10/17 08:07:18;;;;;;;2.60;2.40;;;33.80;49.10;;;;;;5096984;28;20675;-42
2022/10/17 08:09:44;;;;;;;4.13;3.10;;;34.20;47.90;;;;;;5093420;28;20533;-46
2022/10/17 08:12:10;;;;;;;3.10;2.30;;;34.70;46.60;;;;;;5076968;28;20512;-44
2022/10/17 08:14:36;;;;;;;4.50;2.60;;;35.10;45.60;;;;;;5075452;28;20562;-44
2022/10/17 08:17:01;;;;;;;2.57;2.37;;;35.80;44.60;;;;;;5073714;28;20435;-45
2022/10/17 08:19:27;;;;;;;3.10;2.43;;;36.50;43.20;;;;;;5071124;28;20216;-44
2022/10/17 08:21:53;;;;;;;4.63;2.60;;;37.30;41.70;;;;;;5074073;28;20285;-45
2022/10/17 08:24:19;;;;;;;3.80;2.60;;;37.70;40.50;;;;;;5073856;28;20223;-44
2022/10/17 08:26:44;;;;;;;3.10;2.37;;;37.80;39.80;;;;;;5072165;28;20500;-44
2022/10/17 08:29:15;;;;;;;6.37;2.40;;;37.60;39.00;;;;;;5072268;28;20406;-45
2022/10/17 08:31:41;;;;;;;2.97;2.17;;;37.70;38.60;;;;;;5090013;28;20178;-43
2022/10/17 08:34:07;;;;;;;3.43;2.30;;;37.90;37.90;;;;;;5073636;28;20485;-44
2022/10/17 08:36:33;;;;;;;3.03;1.73;;;38.20;37.20;;;;;;5092901;28;20450;-43
2022/10/17 08:39:00;;;;;;;3.23;2.17;;;38.60;36.30;;;;;;5075640;28;20270;-44
2022/10/17 08:41:28;;;;;;;2.83;1.97;;;38.90;35.80;;;;;;5078208;28;20499;-43
2022/10/17 08:44:18;;;;;;;3.53;2.17;;;39.50;35.40;;;;;;5077255;28;20703;-43
2022/10/17 08:46:47;;;;;;;2.63;2.43;;;40.20;34.30;;;;;;5079581;28;20423;-45
2022/10/17 08:49:23;;;;;;;3.23;2.30;;;41.10;33.50;;;;;;5075523;28;20431;-45
2022/10/17 08:51:53;;;;;;;3.33;2.10;;;41.80;32.50;;;;;;5079089;28;20787;-46
2022/10/17 08:54:24;;;;;;;6.67;2.20;;;42.60;31.90;;;;;;5078684;28;20775;-44
2022/10/17 08:56:53;;;;;;;3.53;2.30;;;43.10;31.30;;;;;;5060649;28;20439;-44
2022/10/17 08:59:24;;;;;;;2.10;1.90;;;43.60;31.10;;;;;;5077168;28;20513;-43
2022/10/17 09:02:27;;;;;;;2.30;2.10;;;43.80;30.90;;;;;;5091802;28;20526;-42
2022/10/17 09:05:17;;;;;;;5.80;2.00;;;43.40;30.50;;;;;;5096143;28;20431;-43
2022/10/17 09:07:46;;;;;;;2.50;2.10;;;43.30;30.60;;;;;;5095917;28;20474;-45
2022/10/17 09:10:18;;;;;;;4.93;2.50;;;42.90;30.10;;;;;;5097112;28;20421;-45
2022/10/17 09:13:20;;;;;;;3.40;2.43;;;42.10;30.30;;;;;;5087738;28;20855;-43
2022/10/17 09:16:30;;;;;;;2.50;2.30;;;41.60;30.90;;;;;;5081554;28;20467;-44
2022/10/17 09:19:02;;;;;;;2.27;2.07;;;41.90;30.90;;;;;;5064276;28;20472;-45
2022/10/17 09:21:41;;;;;;;2.60;2.40;;;42.20;30.40;;;;;;5080080;28;20479;-43
2022/10/17 09:24:19;;;;;;;3.60;2.67;;;42.20;30.90;;;;;;5095107;28;20773;-45
2022/10/17 09:26:48;;;;;;;2.60;2.40;;;41.90;30.60;;;;;;5096271;28;20935;-45
2022/10/17 09:29:24;;;;;;;2.53;2.30;;;41.30;31.00;;;;;;5094332;28;20542;-43
2022/10/17 09:32:02;;;;;;;2.27;2.07;;;40.70;30.90;;;;;;5095419;28;20498;-45
2022/10/17 09:34:30;;;;;;;2.77;2.57;;;40.30;31.30;;;;;;5094819;28;20492;-46
2022/10/17 09:36:58;;;;;;;2.40;2.20;;;40.00;31.70;;;;;;5097026;28;20457;-46
2022/10/17 09:39:30;;;;;;;3.30;2.33;;;39.70;31.50;;;;;;5093475;28;20434;-44
2022/10/17 09:42:00;;;;;;;2.10;1.90;;;39.60;31.90;;;;;;5096012;28;20476;-43
2022/10/17 09:44:50;;;;;;;2.30;2.00;;;39.20;32.10;;;;;;5097165;28;20424;-45
2022/10/17 09:47:25;;;;;;;2.77;2.30;;;38.90;32.50;;;;;;5093100;28;20774;-46
2022/10/17 09:49:51;;;;;;;2.67;2.47;;;38.70;32.50;;;;;;5094350;28;20485;-43
2022/10/17 09:52:38;;;;;;;2.50;2.30;;;38.40;32.70;;;;;;5094144;28;20523;-44
2022/10/17 09:55:14;;;;;;;3.03;2.83;;;38.10;33.10;;;;;;5091197;28;20524;-46
2022/10/17 09:58:00;;;;;;;3.10;2.33;;;37.90;33.00;;;;;;5091521;28;20436;-44
2022/10/17 10:00:29;;;;;;;2.50;2.30;;;37.70;33.40;;;;;;5091435;28;20477;-45
2022/10/17 10:03:13;;;;;;;4.20;2.40;;;37.50;33.30;;;;;;5092219;28;21076;-45
2022/10/17 10:05:39;;;;;;;3.33;2.37;;;37.60;33.10;;;;;;5085744;28;20962;-44
2022/10/17 10:08:13;;;;;;;2.40;2.20;;;37.80;32.40;;;;;;5094656;28;20484;-49
2022/10/17 10:10:42;;;;;;;3.30;2.30;;;38.10;32.50;;;;;;5087117;28;20465;-44
2022/10/17 10:13:13;;;;;;;2.90;2.10;;;38.20;32.40;;;;;;5077768;28;20506;-44
2022/10/17 10:15:42;;;;;;;6.03;2.80;;;38.30;32.10;;;;;;5086037;28;20418;-45
2022/10/17 10:18:30;;;;;;;32.30;14.10;;;38.40;32.20;;;;;;5089700;28;20445;-43
2022/10/17 10:21:15;;;;;;;28.90;11.33;;;38.20;32.10;;;;;;5089057;28;20473;-45
2022/10/17 10:23:43;;;;;;;18.23;10.10;;;38.40;31.90;;;;;;5086911;28;20441;-43
2022/10/17 10:26:24;;;;;;;16.93;8.83;;;38.60;32.60;;;;;;5088205;28;20502;-44
2022/10/17 10:29:19;;;;;;;11.87;6.47;;;39.00;32.30;;;;;;5083787;28;20599;-43
2022/10/17 10:31:44;;;;;;;7.40;5.20;;;39.50;31.70;;;;;;5081744;28;20499;-44
2022/10/17 10:34:31;;;;;;;10.13;5.07;;;40.00;30.60;;;;;;5093244;28;20478;-43
2022/10/17 10:37:13;;;;;;;10.27;4.60;;;40.80;30.20;;;;;;5080757;28;20293;-44
2022/10/17 10:39:45;;;;;;;4.30;2.93;;;41.70;30.60;;;;;;5085119;28;21170;-48
2022/10/17 10:42:25;;;;;;;3.27;2.40;;;42.60;29.20;;;;;;5070330;28;20899;-44
2022/10/17 10:44:52;;;;;;;2.63;2.43;;;43.30;28.70;;;;;;5075836;28;20442;-44
2022/10/17 10:47:21;;;;;;;2.40;2.00;;;43.90;28.40;;;;;;5082617;28;20524;-44
2022/10/17 10:49:49;;;;;;;3.17;2.47;;;44.50;28.40;;;;;;5087846;28;20479;-44
2022/10/17 10:52:39;;;;;;;3.07;2.60;;;45.10;28.20;;;;;;5092315;28;20735;-44
2022/10/17 10:55:18;;;;;;;2.80;2.07;;;45.70;28.00;;;;;;5094058;28;20709;-44
2022/10/17 10:57:46;;;;;;;2.30;2.10;;;46.00;27.60;;;;;;5085094;28;20444;-45
2022/10/17 11:00:20;;;;;;;3.30;2.20;;;46.10;27.30;;;;;;5089273;28;20982;-43
2022/10/17 11:03:21;;;;;;;3.90;2.40;;;46.50;26.80;;;;;;5080974;28;20507;-44
2022/10/17 11:05:58;;;;;;;2.63;2.40;;;47.00;26.70;;;;;;5074581;28;20439;-43
2022/10/17 11:08:39;;;;;;;5.00;2.20;;;47.60;26.50;;;;;;5091644;28;20424;-45
2022/10/17 11:11:22;;;;;;;2.70;2.10;;;48.20;26.40;;;;;;5074306;28;20519;-48
2022/10/17 11:14:03;;;;;;;3.27;2.40;;;48.80;26.20;;;;;;5092181;28;20439;-43
2022/10/17 11:16:42;;;;;;;3.10;2.40;;;49.70;25.90;;;;;;5086348;28;20470;-44
2022/10/17 11:19:25;;;;;;;3.80;2.27;;;50.60;25.50;;;;;;5087919;28;20443;-44
2022/10/17 11:22:02;;;;;;;2.93;2.63;;;51.40;25.30;;;;;;5079980;28;20652;-45
2022/10/17 11:25:00;;;;;;;2.17;1.97;;;52.10;25.10;;;;;;5081360;28;20928;-45
2022/10/17 11:27:31;;;;;;;2.10;1.87;;;52.90;25.10;;;;;;5034929;28;21071;-45
2022/10/17 11:29:58;;;;;;;4.30;2.07;;;53.70;24.50;;;;;;5084907;28;20430;-44
2022/10/17 11:32:36;;;;;;;4.03;2.20;;;54.00;24.10;;;;;;5070897;28;20478;-44
2022/10/17 11:35:18;;;;;;;2.50;2.30;;;54.20;24.00;;;;;;5068932;28;20471;-44
2022/10/17 11:38:07;;;;;;;3.40;2.13;;;54.70;23.80;;;;;;5076213;28;20869;-42
2022/10/17 11:40:36;;;;;;;2.47;2.00;;;55.00;23.40;;;;;;5075530;28;20433;-43
2022/10/17 11:43:17;;;;;;;3.70;2.70;;;55.20;23.10;;;;;;5081866;28;20451;-44
2022/10/17 11:46:09;;;;;;;2.67;2.13;;;55.40;23.00;;;;;;5077512;28;20921;-43
2022/10/17 11:48:59;;;;;;;3.80;2.03;;;55.30;23.00;;;;;;5081388;28;20463;-44
2022/10/17 11:51:31;;;;;;;2.47;2.20;;;55.30;22.90;;;;;;5083855;28;20504;-43
2022/10/17 11:54:20;;;;;;;5.33;2.33;;;55.20;23.00;;;;;;5078042;28;20436;-45
2022/10/17 11:57:06;;;;;;;3.33;2.53;;;55.20;22.70;;;;;;5088845;28;20531;-46
2022/10/17 11:59:59;;;;;;;3.03;2.83;;;55.30;22.80;;;;;;5074475;28;20435;-47
2022/10/17 12:02:44;;;;;;;3.07;2.00;;;55.20;22.60;;;;;;5070074;28;20424;-43
2022/10/17 12:05:35;;;;;;;3.30;2.07;;;55.20;22.70;;;;;;5078103;28;20434;-43
2022/10/17 12:08:24;;;;;;;2.33;2.10;;;55.50;22.80;;;;;;5082213;28;20479;-47
2022/10/17 12:11:04;;;;;;;2.90;2.70;;;55.60;22.50;;;;;;5081906;28;20571;-44
2022/10/17 12:13:34;;;;;;;2.70;2.50;;;55.60;22.50;;;;;;5078826;28;20423;-43
2022/10/17 12:16:28;;;;;;;2.90;2.57;;;55.50;22.40;;;;;;5086047;28;20847;-46
2022/10/17 12:19:00;;;;;;;2.50;2.10;;;55.40;22.60;;;;;;5093108;28;20426;-45
2022/10/17 12:21:26;;;;;;;2.37;2.17;;;55.60;22.60;;;;;;5091485;28;20457;-45
2022/10/17 12:23:53;;;;;;;3.83;2.20;;;55.70;22.70;;;;;;5091908;28;20460;-44
2022/10/17 12:26:26;;;;;;;5.57;2.90;;;55.60;22.70;;;;;;5093386;28;20419;-46
2022/10/17 12:28:52;;;;;;;3.83;2.33;;;55.80;22.50;;;;;;5092138;28;20448;-45
2022/10/17 12:31:21;;;;;;;2.70;2.50;;;56.00;22.50;;;;;;5091555;28;20866;-43
2022/10/17 12:33:51;;;;;;;2.90;2.47;;;56.00;22.40;;;;;;5088983;28;20217;-43
2022/10/17 12:36:22;;;;;;;3.10;2.20;;;56.00;22.30;;;;;;5088043;28;21335;-44
2022/10/17 12:38:50;;;;;;;5.97;2.40;;;56.00;22.20;;;;;;5087538;28;20768;-46
2022/10/17 12:41:39;;;;;;;3.30;2.40;;;56.00;22.20;;;;;;5089642;28;20755;-44
2022/10/17 12:44:25;;;;;;;3.57;2.20;;;56.20;22.50;;;;;;5089939;28;20574;-43
2022/10/17 12:46:51;;;;;;;2.70;2.00;;;56.40;22.00;;;;;;5081779;28;20795;-44
2022/10/17 12:49:22;;;;;;;2.33;2.13;;;56.40;21.80;;;;;;5090867;28;20420;-44
2022/10/17 12:52:23;;;;;;;2.60;2.10;;;56.30;21.60;;;;;;5090700;28;20235;-45
2022/10/17 12:54:50;;;;;;;2.50;2.30;;;56.30;21.40;;;;;;5022213;28;20846;-45
2022/10/17 12:57:20;;;;;;;2.53;1.93;;;56.40;21.20;;;;;;5068226;28;21032;-45
2022/10/17 12:59:47;;;;;;;3.70;2.40;;;56.20;21.20;;;;;;5083476;28;20423;-45
2022/10/17 13:02:18;;;;;;;4.73;2.20;;;56.10;21.10;;;;;;5087051;28;20426;-45
2022/10/17 13:04:44;;;;;;;3.23;2.00;;;56.00;21.20;;;;;;5078059;28;20432;-44
2022/10/17 13:07:19;;;;;;;4.20;2.57;;;55.70;21.30;;;;;;5083992;28;20432;-44